Time;durP1;ratioP1;P1;durP2;ratioP2;P2;SDS_P1;SDS_P2;PMS_P1;PMS_P2;Temp;Humidity;BMP_temperature;BMP_pressure;BME280_temperature;BME280_humidity;BME280_pressure;Samples;Min_cycle;Max_cycle;Signal;HPM_P1;HPM_P2
2023/04/18 00:00:43;;;;;;;4.15;2.33;;;20.40;61.80;;;;;;5010397;28;20101;-66
2023/04/18 00:03:14;;;;;;;4.75;2.03;;;20.40;61.80;;;;;;4999879;28;20057;-66
2023/04/18 00:05:42;;;;;;;4.13;2.42;;;20.40;61.90;;;;;;4991118;28;20057;-66
2023/04/18 00:08:09;;;;;;;4.28;2.30;;;20.30;61.80;;;;;;4990833;28;20065;-66
2023/04/18 00:10:38;;;;;;;3.28;2.13;;;20.30;61.80;;;;;;5005674;28;20104;-66
2023/04/18 00:13:06;;;;;;;4.32;2.60;;;20.30;61.80;;;;;;5008685;28;20049;-66
2023/04/18 00:15:34;;;;;;;3.42;1.92;;;20.30;62.00;;;;;;5009024;28;20046;-66
2023/04/18 00:18:04;;;;;;;3.15;1.98;;;20.30;61.80;;;;;;5010229;28;20049;-66
2023/04/18 00:20:32;;;;;;;3.55;2.15;;;20.30;61.90;;;;;;4997486;28;20054;-66
2023/04/18 00:22:59;;;;;;;3.33;1.98;;;20.30;61.90;;;;;;4989355;28;20059;-67
2023/04/18 00:25:26;;;;;;;4.55;2.38;;;20.30;61.90;;;;;;5006872;28;20050;-65
2023/04/18 00:27:54;;;;;;;3.33;2.10;;;20.30;61.90;;;;;;5010168;28;20050;-66
2023/04/18 00:30:21;;;;;;;4.13;2.10;;;20.30;62.00;;;;;;5010013;28;20053;-66
2023/04/18 00:32:48;;;;;;;3.78;2.40;;;20.20;62.50;;;;;;5010090;28;20050;-66
2023/04/18 00:35:15;;;;;;;3.28;1.85;;;20.20;61.90;;;;;;5010079;28;20620;-66
2023/04/18 00:37:42;;;;;;;3.75;2.10;;;20.20;61.90;;;;;;5008489;28;20069;-66
2023/04/18 00:40:10;;;;;;;3.47;2.08;;;20.20;61.90;;;;;;5009030;28;20761;-66
2023/04/18 00:42:37;;;;;;;3.67;2.15;;;20.20;62.00;;;;;;5008951;28;20064;-66
2023/04/18 00:45:07;;;;;;;5.32;2.38;;;20.20;61.90;;;;;;5009838;28;20054;-65
2023/04/18 00:47:34;;;;;;;3.88;2.15;;;20.20;62.00;;;;;;5010045;28;20085;-66
2023/04/18 00:50:01;;;;;;;3.20;1.77;;;20.20;62.00;;;;;;5008936;28;20160;-66
2023/04/18 00:52:28;;;;;;;4.03;2.38;;;20.20;62.00;;;;;;5007801;28;20422;-65
2023/04/18 00:54:55;;;;;;;3.45;2.22;;;20.20;62.00;;;;;;5012400;28;20049;-66
2023/04/18 00:57:22;;;;;;;2.92;1.77;;;20.20;62.00;;;;;;5012541;28;20434;-65
2023/04/18 00:59:50;;;;;;;3.58;1.85;;;20.20;62.60;;;;;;5013675;28;20065;-66
2023/04/18 01:02:18;;;;;;;3.83;2.10;;;20.20;62.00;;;;;;5005605;28;20487;-65
2023/04/18 01:04:45;;;;;;;3.50;2.28;;;20.10;62.00;;;;;;5007554;28;20133;-66
2023/04/18 01:07:12;;;;;;;3.03;1.85;;;20.10;62.00;;;;;;5009406;28;20061;-66
2023/04/18 01:09:40;;;;;;;3.20;1.95;;;20.10;62.00;;;;;;5013095;28;20489;-66
2023/04/18 01:12:07;;;;;;;4.43;2.25;;;20.10;62.00;;;;;;5012559;28;20050;-66
2023/04/18 01:14:34;;;;;;;3.17;2.05;;;20.10;62.00;;;;;;5004985;28;20057;-65
2023/04/18 01:17:01;;;;;;;3.33;2.15;;;20.10;62.00;;;;;;5013281;28;20054;-65
2023/04/18 01:19:29;;;;;;;3.13;2.15;;;20.10;62.00;;;;;;5013260;28;20709;-65
2023/04/18 01:21:56;;;;;;;3.50;2.08;;;20.10;62.00;;;;;;5012131;28;20062;-66
2023/04/18 01:24:28;;;;;;;2.80;1.85;;;20.10;62.00;;;;;;5011582;28;20053;-66
2023/04/18 01:26:56;;;;;;;2.78;1.63;;;20.10;62.00;;;;;;5012219;28;20061;-66
2023/04/18 01:29:23;;;;;;;3.05;1.88;;;20.10;62.00;;;;;;5011410;28;20156;-66
2023/04/18 01:31:49;;;;;;;3.83;1.85;;;20.10;62.00;;;;;;5002902;28;20054;-65
2023/04/18 01:34:17;;;;;;;3.65;1.95;;;20.10;62.00;;;;;;5011156;28;20058;-66
2023/04/18 01:36:45;;;;;;;4.22;2.13;;;20.10;62.00;;;;;;5011512;28;20092;-66
2023/04/18 01:39:12;;;;;;;3.15;1.70;;;20.00;62.00;;;;;;5012279;28;20065;-66
2023/04/18 01:41:41;;;;;;;3.88;2.00;;;20.00;62.00;;;;;;5010967;28;20061;-66
2023/04/18 01:44:08;;;;;;;4.25;2.08;;;20.00;62.00;;;;;;5010055;28;20065;-65
2023/04/18 01:46:35;;;;;;;4.38;2.53;;;20.00;62.00;;;;;;5010588;28;20054;-66
2023/04/18 01:49:02;;;;;;;3.50;1.65;;;20.00;62.00;;;;;;5012298;28;20104;-66
2023/04/18 01:51:30;;;;;;;2.88;1.67;;;20.00;62.00;;;;;;5010985;28;20161;-66
2023/04/18 01:53:57;;;;;;;2.90;1.95;;;20.00;62.00;;;;;;5012013;28;20045;-66
2023/04/18 01:56:24;;;;;;;3.22;2.05;;;20.00;62.00;;;;;;5010580;28;20061;-66
2023/04/18 01:58:52;;;;;;;3.33;1.85;;;20.00;62.00;;;;;;5010761;28;20483;-65
2023/04/18 02:01:19;;;;;;;3.35;1.73;;;20.00;62.00;;;;;;5004175;28;20057;-66
2023/04/18 02:03:46;;;;;;;3.53;1.70;;;19.90;62.00;;;;;;5009408;28;20046;-66
2023/04/18 02:06:13;;;;;;;3.33;1.85;;;20.00;62.00;;;;;;5009251;28;20053;-66
2023/04/18 02:08:40;;;;;;;2.75;1.70;;;20.00;62.00;;;;;;5010300;28;20590;-66
2023/04/18 02:11:07;;;;;;;3.50;1.80;;;20.00;62.00;;;;;;5011327;28;20128;-66
2023/04/18 02:13:34;;;;;;;2.85;1.63;;;19.90;62.00;;;;;;5009564;28;20046;-66
2023/04/18 02:16:02;;;;;;;3.58;2.00;;;19.90;61.90;;;;;;5007879;28;20049;-66
2023/04/18 02:18:29;;;;;;;3.30;2.00;;;20.00;62.00;;;;;;5006112;28;20061;-66
2023/04/18 02:20:56;;;;;;;2.92;1.80;;;20.00;62.00;;;;;;5009432;28;20104;-66
2023/04/18 02:23:23;;;;;;;2.72;1.58;;;20.00;62.00;;;;;;5009754;28;20056;-65
2023/04/18 02:25:50;;;;;;;2.97;1.88;;;19.90;62.00;;;;;;5009817;28;20069;-66
2023/04/18 02:28:17;;;;;;;2.83;1.60;;;19.90;62.00;;;;;;5011468;28;20426;-66
2023/04/18 02:30:44;;;;;;;3.38;1.85;;;19.90;62.00;;;;;;5010365;28;20046;-66
2023/04/18 02:33:12;;;;;;;4.00;1.95;;;19.90;62.60;;;;;;5004324;28;20057;-66
2023/04/18 02:35:40;;;;;;;3.00;1.98;;;19.90;62.00;;;;;;5010445;28;20061;-65
2023/04/18 02:38:07;;;;;;;2.78;2.05;;;19.90;62.00;;;;;;5010658;28;20062;-66
2023/04/18 02:40:34;;;;;;;2.90;1.85;;;19.90;62.00;;;;;;5011579;28;20577;-66
2023/04/18 02:43:01;;;;;;;4.15;2.45;;;19.90;62.00;;;;;;5010170;28;20053;-65
2023/04/18 02:45:28;;;;;;;2.80;1.63;;;19.90;62.00;;;;;;5011857;28;20376;-66
2023/04/18 02:47:55;;;;;;;3.20;1.80;;;19.90;62.00;;;;;;5009601;28;20085;-65
2023/04/18 02:50:24;;;;;;;3.13;1.70;;;19.90;62.00;;;;;;5010325;28;20065;-65
2023/04/18 02:52:51;;;;;;;2.95;1.55;;;19.90;62.00;;;;;;5003643;28;20109;-65
2023/04/18 02:55:18;;;;;;;3.58;1.80;;;19.90;62.00;;;;;;4990840;28;20065;-65
2023/04/18 02:57:45;;;;;;;2.80;1.60;;;19.80;62.00;;;;;;5004221;28;20057;-66
2023/04/18 03:00:13;;;;;;;2.90;1.70;;;19.80;62.00;;;;;;4999909;28;20058;-65
2023/04/18 03:02:40;;;;;;;2.47;1.52;;;19.80;62.40;;;;;;4992138;28;20431;-66
2023/04/18 03:05:07;;;;;;;2.72;1.52;;;19.80;62.00;;;;;;4991830;28;20084;-65
2023/04/18 03:07:36;;;;;;;3.17;1.80;;;19.80;62.00;;;;;;4991783;28;20070;-66
2023/04/18 03:10:03;;;;;;;3.35;1.58;;;19.80;62.00;;;;;;4998462;28;20527;-66
2023/04/18 03:12:30;;;;;;;3.42;2.00;;;19.80;62.00;;;;;;5009138;28;20060;-66
2023/04/18 03:14:57;;;;;;;3.40;1.52;;;19.80;62.00;;;;;;5010473;28;20053;-66
2023/04/18 03:17:24;;;;;;;3.70;1.65;;;19.80;62.00;;;;;;5010754;28;20062;-66
2023/04/18 03:19:51;;;;;;;2.65;1.70;;;19.80;62.00;;;;;;5010885;28;20057;-66
2023/04/18 03:22:18;;;;;;;2.67;1.50;;;19.80;62.00;;;;;;5010848;28;20061;-66
2023/04/18 03:24:47;;;;;;;2.92;1.58;;;19.80;62.00;;;;;;5009910;28;20570;-66
2023/04/18 03:27:14;;;;;;;3.17;1.83;;;19.80;62.00;;;;;;5009280;28;20543;-66
2023/04/18 03:29:41;;;;;;;2.72;1.63;;;19.80;62.00;;;;;;5011105;28;20057;-66
2023/04/18 03:32:08;;;;;;;2.67;1.58;;;19.80;62.00;;;;;;5010953;28;20050;-65
2023/04/18 03:34:35;;;;;;;4.13;1.60;;;19.80;62.00;;;;;;5009218;28;20050;-66
2023/04/18 03:37:02;;;;;;;2.65;1.42;;;19.70;62.00;;;;;;5009582;28;20132;-66
2023/04/18 03:39:29;;;;;;;2.10;1.40;;;19.80;62.00;;;;;;5010046;28;20061;-65
2023/04/18 03:41:57;;;;;;;2.78;1.42;;;19.80;62.00;;;;;;5008018;28;20434;-66
2023/04/18 03:44:24;;;;;;;3.15;1.95;;;19.70;62.00;;;;;;5010742;28;20915;-66
2023/04/18 03:46:51;;;;;;;3.35;1.92;;;19.70;62.00;;;;;;5009061;28;20430;-66
2023/04/18 03:49:18;;;;;;;3.40;1.58;;;19.70;62.60;;;;;;5007195;28;20049;-66
2023/04/18 03:51:47;;;;;;;2.90;1.27;;;19.70;62.00;;;;;;5009284;28;20057;-66
2023/04/18 03:54:14;;;;;;;3.50;1.60;;;19.70;62.00;;;;;;4997824;28;20046;-66
2023/04/18 03:56:41;;;;;;;2.55;1.48;;;19.70;62.00;;;;;;5010348;28;20096;-65
2023/04/18 03:59:10;;;;;;;2.60;1.50;;;19.70;62.00;;;;;;5005219;28;20073;-66
2023/04/18 04:01:37;;;;;;;2.80;1.63;;;19.70;62.00;;;;;;4996640;28;20065;-66
2023/04/18 04:04:04;;;;;;;2.67;1.73;;;19.70;62.00;;;;;;5005643;28;20054;-66
2023/04/18 04:06:32;;;;;;;2.92;1.55;;;19.70;62.00;;;;;;5009023;28;20053;-66
2023/04/18 04:08:59;;;;;;;3.47;1.98;;;19.70;62.00;;;;;;5010398;28;20104;-65
2023/04/18 04:11:26;;;;;;;3.05;1.70;;;19.70;62.00;;;;;;5008873;28;20049;-66
2023/04/18 04:13:53;;;;;;;2.50;1.50;;;19.70;62.00;;;;;;5010687;28;20409;-65
2023/04/18 04:16:21;;;;;;;2.78;1.42;;;19.70;62.00;;;;;;5008278;28;20598;-66
2023/04/18 04:18:48;;;;;;;2.80;1.48;;;19.70;62.00;;;;;;4995592;28;20061;-66
2023/04/18 04:21:15;;;;;;;2.83;1.55;;;19.70;62.00;;;;;;4989933;28;20054;-66
2023/04/18 04:23:42;;;;;;;2.53;1.40;;;19.70;62.00;;;;;;5008786;28;20391;-66
2023/04/18 04:26:09;;;;;;;2.70;1.52;;;19.70;62.00;;;;;;5008818;28;20510;-66
2023/04/18 04:28:38;;;;;;;2.60;1.63;;;19.70;62.00;;;;;;5013831;28;20422;-66
2023/04/18 04:31:07;;;;;;;3.13;1.85;;;19.70;62.00;;;;;;5014366;28;20050;-66
2023/04/18 04:33:37;;;;;;;2.97;1.88;;;19.70;62.10;;;;;;5012326;28;20060;-66
2023/04/18 04:36:05;;;;;;;2.70;1.35;;;19.70;62.00;;;;;;4999610;28;20046;-66
2023/04/18 04:38:33;;;;;;;2.63;1.70;;;19.70;62.10;;;;;;5014068;28;20605;-66
2023/04/18 04:41:00;;;;;;;2.53;1.92;;;19.70;62.10;;;;;;5014034;28;20129;-65
2023/04/18 04:43:27;;;;;;;3.67;1.73;;;19.70;62.00;;;;;;5013674;28;20050;-66
2023/04/18 04:45:54;;;;;;;3.38;1.50;;;19.60;62.00;;;;;;5012777;28;20053;-65
2023/04/18 04:48:23;;;;;;;3.03;1.23;;;19.60;62.10;;;;;;5013903;28;20162;-67
2023/04/18 04:50:56;;;;;;;2.42;1.30;;;19.60;62.10;;;;;;5012591;28;20057;-66
2023/04/18 04:53:23;;;;;;;3.40;1.60;;;19.60;62.10;;;;;;5010723;28;20515;-66
2023/04/18 04:55:51;;;;;;;3.17;1.38;;;19.60;62.10;;;;;;5012056;28;20058;-66
2023/04/18 04:58:18;;;;;;;2.85;1.50;;;19.60;62.10;;;;;;5011445;28;20068;-65
2023/04/18 05:00:46;;;;;;;2.75;1.80;;;19.60;62.10;;;;;;5013545;28;20065;-66
2023/04/18 05:03:12;;;;;;;2.83;1.40;;;19.60;62.70;;;;;;5012040;28;20054;-66
2023/04/18 05:05:40;;;;;;;2.22;1.25;;;19.60;62.10;;;;;;5012253;28;20146;-66
2023/04/18 05:08:08;;;;;;;2.67;1.58;;;19.60;62.10;;;;;;5009946;28;20046;-66
2023/04/18 05:10:36;;;;;;;2.78;1.42;;;19.60;62.10;;;;;;4992720;28;20442;-66
2023/04/18 05:13:03;;;;;;;2.35;1.48;;;19.60;62.10;;;;;;5003368;28;20093;-65
2023/04/18 05:15:31;;;;;;;2.53;1.40;;;19.60;62.10;;;;;;5013463;28;20133;-66
2023/04/18 05:17:58;;;;;;;2.40;1.35;;;19.60;62.10;;;;;;5013540;28;20045;-65
2023/04/18 05:20:25;;;;;;;2.45;1.65;;;19.60;62.10;;;;;;5012185;28;20061;-66
2023/04/18 05:22:52;;;;;;;2.50;1.35;;;19.60;62.10;;;;;;5013156;28;20411;-65
2023/04/18 05:25:20;;;;;;;2.58;1.45;;;19.60;62.10;;;;;;5011324;28;20128;-65
2023/04/18 05:27:47;;;;;;;3.40;1.60;;;19.60;62.10;;;;;;5005596;28;20074;-66
2023/04/18 05:30:14;;;;;;;2.42;1.58;;;19.60;62.10;;;;;;5013228;28;20054;-66
2023/04/18 05:32:42;;;;;;;2.75;1.75;;;19.60;62.10;;;;;;5013269;28;20060;-66
2023/04/18 05:35:09;;;;;;;2.33;1.35;;;19.60;62.00;;;;;;5012714;28;20140;-66
2023/04/18 05:37:36;;;;;;;2.63;1.50;;;19.60;62.00;;;;;;5011669;28;20045;-66
2023/04/18 05:40:05;;;;;;;3.20;1.65;;;19.60;62.00;;;;;;5011803;28;20050;-66
2023/04/18 05:42:33;;;;;;;3.05;1.20;;;19.60;62.00;;;;;;5012084;28;20057;-66
2023/04/18 05:45:00;;;;;;;2.25;1.13;;;19.60;62.00;;;;;;5010080;28;20608;-65
2023/04/18 05:47:29;;;;;;;2.60;1.42;;;19.60;61.90;;;;;;5004711;28;20053;-65
2023/04/18 05:49:55;;;;;;;2.33;1.52;;;19.60;61.90;;;;;;5002413;28;20096;-66
2023/04/18 05:52:24;;;;;;;3.55;1.65;;;19.60;61.90;;;;;;5008267;28;20060;-65
2023/04/18 05:54:51;;;;;;;2.63;1.30;;;19.60;61.90;;;;;;5009378;28;20058;-65
2023/04/18 05:57:18;;;;;;;2.40;1.35;;;19.70;61.90;;;;;;5005280;28;20128;-66
2023/04/18 05:59:47;;;;;;;2.75;1.33;;;19.70;61.90;;;;;;5014713;28;20076;-66
2023/04/18 06:02:14;;;;;;;2.40;1.45;;;19.70;61.80;;;;;;5008402;28;20060;-65
2023/04/18 06:04:41;;;;;;;2.25;1.27;;;19.70;61.90;;;;;;5017387;28;20061;-66
2023/04/18 06:07:09;;;;;;;2.97;1.40;;;19.70;61.90;;;;;;5010207;28;20056;-66
2023/04/18 06:09:36;;;;;;;3.00;2.00;;;19.70;61.80;;;;;;5008959;28;20057;-66
2023/04/18 06:12:03;;;;;;;2.33;1.10;;;19.70;61.80;;;;;;5009289;28;20049;-66
2023/04/18 06:14:30;;;;;;;2.45;1.45;;;19.80;61.80;;;;;;5009633;28;20616;-66
2023/04/18 06:16:59;;;;;;;2.40;1.30;;;19.80;61.90;;;;;;5008390;28;20057;-66
2023/04/18 06:19:26;;;;;;;2.15;1.15;;;19.80;61.80;;;;;;5010956;28;20125;-66
2023/04/18 06:21:53;;;;;;;2.55;1.40;;;19.90;61.90;;;;;;5010571;28;20430;-66
2023/04/18 06:24:20;;;;;;;2.53;1.52;;;19.90;61.90;;;;;;5008194;28;20045;-66
2023/04/18 06:26:47;;;;;;;2.30;1.17;;;20.00;61.80;;;;;;5008453;28;20058;-66
2023/04/18 06:29:16;;;;;;;2.17;1.25;;;20.00;61.80;;;;;;5010126;28;20062;-66
2023/04/18 06:31:47;;;;;;;2.40;1.05;;;20.00;61.70;;;;;;5010457;28;20501;-66
2023/04/18 06:34:15;;;;;;;2.20;1.38;;;20.00;61.60;;;;;;5008571;28;20174;-66
2023/04/18 06:36:44;;;;;;;2.50;1.70;;;20.10;61.50;;;;;;5010385;28;20135;-66
2023/04/18 06:39:11;;;;;;;2.45;1.30;;;20.10;61.50;;;;;;5010504;28;20506;-66
2023/04/18 06:41:38;;;;;;;2.72;1.70;;;20.20;61.40;;;;;;5007878;28;20093;-66
2023/04/18 06:44:05;;;;;;;2.75;1.60;;;20.20;61.40;;;;;;5008723;28;20076;-66
2023/04/18 06:46:32;;;;;;;2.13;1.20;;;20.20;61.30;;;;;;5006331;28;20103;-66
2023/04/18 06:48:59;;;;;;;2.60;1.40;;;20.30;61.90;;;;;;5009052;28;20045;-66
2023/04/18 06:51:28;;;;;;;2.90;1.42;;;20.30;61.20;;;;;;5006957;28;20061;-67
2023/04/18 06:53:55;;;;;;;2.13;1.05;;;20.30;61.20;;;;;;5000681;28;20065;-66
2023/04/18 06:56:22;;;;;;;2.45;1.55;;;20.30;61.10;;;;;;5004797;28;20499;-66
2023/04/18 06:58:51;;;;;;;2.10;1.23;;;20.40;61.10;;;;;;5010464;28;20053;-66
2023/04/18 07:01:18;;;;;;;2.35;1.20;;;20.30;60.90;;;;;;4997241;28;20501;-66
2023/04/18 07:03:45;;;;;;;2.47;1.23;;;20.40;60.90;;;;;;5008275;28;20061;-66
2023/04/18 07:06:12;;;;;;;1.95;1.30;;;20.40;60.90;;;;;;5000571;28;20049;-66
2023/04/18 07:08:40;;;;;;;2.40;1.50;;;20.40;60.80;;;;;;5002279;28;20056;-66
2023/04/18 07:11:07;;;;;;;2.60;1.80;;;20.40;60.80;;;;;;5007597;28;20521;-66
2023/04/18 07:13:34;;;;;;;2.22;1.27;;;20.50;60.70;;;;;;5012163;28;20056;-65
2023/04/18 07:16:01;;;;;;;2.72;1.80;;;20.50;60.70;;;;;;5007849;28;20773;-66
2023/04/18 07:18:29;;;;;;;2.08;1.13;;;20.40;60.60;;;;;;5006423;28;20569;-66
2023/04/18 07:20:56;;;;;;;2.25;1.20;;;20.50;60.60;;;;;;5007340;28;20517;-67
2023/04/18 07:23:23;;;;;;;2.40;1.63;;;20.40;60.60;;;;;;5007109;28;20050;-66
2023/04/18 07:25:52;;;;;;;2.20;1.40;;;20.50;60.80;;;;;;5008115;28;20557;-66
2023/04/18 07:28:19;;;;;;;2.80;1.30;;;20.50;60.50;;;;;;5005941;28;20050;-66
2023/04/18 07:30:47;;;;;;;2.72;1.52;;;20.50;60.50;;;;;;5009396;28;20042;-66
2023/04/18 07:33:14;;;;;;;2.53;1.33;;;20.50;60.50;;;;;;5020757;28;20062;-66
2023/04/18 07:35:41;;;;;;;2.25;1.27;;;20.50;60.50;;;;;;5007142;28;20494;-67
2023/04/18 07:38:10;;;;;;;3.30;1.63;;;20.50;60.50;;;;;;5005667;28;20119;-66
2023/04/18 07:40:37;;;;;;;2.45;1.58;;;20.50;60.50;;;;;;5003058;28;20046;-66
2023/04/18 07:43:05;;;;;;;2.63;1.42;;;20.50;60.50;;;;;;5007749;28;20498;-66
2023/04/18 07:45:34;;;;;;;3.35;1.58;;;20.50;60.50;;;;;;5009111;28;20052;-66
2023/04/18 07:48:01;;;;;;;2.22;1.40;;;20.50;60.50;;;;;;5008214;28;20054;-66
2023/04/18 07:50:28;;;;;;;3.63;1.77;;;20.50;60.40;;;;;;5009254;28;20042;-66
2023/04/18 07:52:55;;;;;;;2.20;1.40;;;20.50;60.40;;;;;;5008034;28;20050;-65
2023/04/18 07:55:23;;;;;;;2.40;1.55;;;20.50;60.40;;;;;;5007113;28;20427;-66
2023/04/18 07:57:50;;;;;;;2.50;1.38;;;20.50;60.40;;;;;;5006613;28;20100;-66
2023/04/18 08:00:19;;;;;;;2.78;1.33;;;20.50;60.40;;;;;;5006125;28;20060;-66
2023/04/18 08:02:46;;;;;;;2.83;1.75;;;20.50;60.40;;;;;;5004518;28;20601;-65
2023/04/18 08:05:13;;;;;;;2.25;1.50;;;20.60;60.40;;;;;;5007583;28;20037;-66
2023/04/18 08:07:40;;;;;;;2.08;1.20;;;20.50;60.30;;;;;;5008658;28;20105;-66
2023/04/18 08:10:09;;;;;;;2.45;1.08;;;20.50;60.20;;;;;;5006256;28;20068;-66
2023/04/18 08:12:36;;;;;;;2.42;1.58;;;20.60;60.30;;;;;;5003734;28;20886;-65
2023/04/18 08:15:03;;;;;;;2.10;1.15;;;20.60;60.30;;;;;;5002765;28;20074;-65
2023/04/18 08:17:32;;;;;;;3.78;1.70;;;20.50;60.20;;;;;;5005117;28;20414;-66
2023/04/18 08:20:03;;;;;;;3.35;1.48;;;20.60;60.30;;;;;;5008769;28;20064;-66
2023/04/18 08:22:30;;;;;;;2.75;1.30;;;20.60;60.40;;;;;;5002475;28;20058;-68
2023/04/18 08:24:59;;;;;;;3.47;1.15;;;20.60;60.40;;;;;;5002611;28;20050;-67
2023/04/18 08:27:26;;;;;;;3.92;1.50;;;20.60;60.40;;;;;;5007754;28;20081;-67
2023/04/18 08:29:53;;;;;;;2.08;1.25;;;20.60;60.40;;;;;;5002454;28;20108;-66
2023/04/18 08:32:20;;;;;;;3.22;1.77;;;20.60;60.40;;;;;;5007988;28;20080;-67
2023/04/18 08:34:48;;;;;;;2.63;1.10;;;20.60;60.40;;;;;;5005879;28;20049;-67
2023/04/18 08:37:15;;;;;;;2.90;1.30;;;20.60;60.50;;;;;;5009145;28;20053;-66
2023/04/18 08:39:43;;;;;;;3.00;1.73;;;20.60;60.50;;;;;;5006428;28;20045;-66
2023/04/18 08:42:10;;;;;;;2.42;1.58;;;20.70;60.90;;;;;;5006932;28;20085;-66
2023/04/18 08:44:37;;;;;;;2.72;1.45;;;20.70;60.60;;;;;;5005799;28;20057;-67
2023/04/18 08:47:07;;;;;;;2.38;1.08;;;20.70;60.60;;;;;;5005253;28;20065;-67
2023/04/18 08:49:35;;;;;;;2.67;1.40;;;20.70;60.60;;;;;;5006257;28;20054;-66
2023/04/18 08:52:09;;;;;;;4.15;1.70;;;20.70;60.60;;;;;;5007400;28;20054;-66
2023/04/18 08:54:37;;;;;;;3.72;1.25;;;20.70;60.60;;;;;;5013319;28;20045;-66
2023/04/18 08:57:05;;;;;;;3.67;1.50;;;20.80;60.70;;;;;;5006603;28;20049;-67
2023/04/18 08:59:34;;;;;;;2.58;1.27;;;20.80;60.70;;;;;;5007968;28;20108;-66
2023/04/18 09:02:02;;;;;;;2.50;1.27;;;20.80;60.60;;;;;;5004280;28;20065;-66
2023/04/18 09:04:35;;;;;;;2.70;1.80;;;20.80;60.70;;;;;;5005199;28;20552;-67
2023/04/18 09:07:03;;;;;;;2.30;1.40;;;20.80;60.70;;;;;;5006181;28;20069;-67
2023/04/18 09:09:47;;;;;;;2.40;1.60;;;20.80;60.70;;;;;;5005496;28;20065;-66
2023/04/18 09:12:17;;;;;;;2.95;1.55;;;20.80;60.70;;;;;;5007622;28;20552;-66
2023/04/18 09:14:46;;;;;;;2.22;1.33;;;20.90;60.70;;;;;;4997817;28;20046;-66
2023/04/18 09:17:17;;;;;;;2.30;1.30;;;20.90;60.70;;;;;;4998736;28;20042;-67
2023/04/18 09:19:49;;;;;;;3.10;1.27;;;20.90;60.70;;;;;;5009904;28;20056;-66
2023/04/18 09:22:17;;;;;;;2.50;1.33;;;20.90;60.70;;;;;;5008436;28;20843;-66
2023/04/18 09:24:52;;;;;;;2.72;1.35;;;20.90;60.70;;;;;;5008142;28;20049;-67
2023/04/18 09:27:21;;;;;;;3.05;1.40;;;20.90;60.80;;;;;;4998572;28;20136;-67
2023/04/18 09:29:50;;;;;;;2.45;1.40;;;20.90;60.70;;;;;;5008588;28;20081;-67
2023/04/18 09:32:23;;;;;;;2.50;1.50;;;20.90;60.70;;;;;;5006557;28;20537;-67
2023/04/18 09:34:53;;;;;;;2.50;1.70;;;20.90;60.70;;;;;;5009449;28;20418;-66
2023/04/18 09:37:21;;;;;;;2.42;1.35;;;21.00;60.80;;;;;;5009908;28;20525;-67
2023/04/18 09:39:49;;;;;;;2.22;1.45;;;21.00;60.70;;;;;;5007603;28;20069;-67
2023/04/18 09:42:17;;;;;;;2.80;1.52;;;21.00;60.70;;;;;;5010191;28;20057;-67
2023/04/18 09:45:00;;;;;;;2.33;1.25;;;21.00;60.80;;;;;;5008108;28;20434;-67
2023/04/18 09:47:28;;;;;;;2.38;1.35;;;21.00;60.80;;;;;;4999569;28;20065;-67
2023/04/18 09:49:55;;;;;;;2.55;1.30;;;21.00;60.80;;;;;;5009467;28;20076;-67
2023/04/18 09:52:25;;;;;;;2.97;1.45;;;21.00;60.80;;;;;;5006916;28;20077;-67
2023/04/18 09:54:57;;;;;;;2.47;1.23;;;21.10;60.90;;;;;;5010866;28;20077;-67
2023/04/18 09:57:28;;;;;;;2.28;1.38;;;21.10;60.90;;;;;;5009366;28;20564;-67
2023/04/18 10:00:01;;;;;;;3.70;1.40;;;21.10;60.90;;;;;;5009530;28;20189;-67
2023/04/18 10:02:35;;;;;;;2.45;1.30;;;21.10;61.00;;;;;;5010069;28;20144;-67
2023/04/18 10:05:04;;;;;;;3.75;1.58;;;21.10;60.90;;;;;;5007873;28;20049;-67
2023/04/18 10:07:33;;;;;;;3.15;1.48;;;21.10;60.90;;;;;;5008582;28;20046;-67
2023/04/18 10:10:00;;;;;;;2.40;1.55;;;21.10;60.80;;;;;;5009927;28;20058;-67
2023/04/18 10:12:27;;;;;;;2.70;1.83;;;21.10;60.80;;;;;;5007653;28;20057;-67
2023/04/18 10:14:54;;;;;;;2.58;1.42;;;21.10;60.80;;;;;;5003518;28;20061;-67
2023/04/18 10:17:21;;;;;;;3.22;1.42;;;21.20;60.90;;;;;;5000183;28;20495;-67
2023/04/18 10:20:05;;;;;;;2.78;1.45;;;21.20;60.80;;;;;;5018003;28;20053;-67
2023/04/18 10:22:34;;;;;;;2.67;1.80;;;21.20;60.80;;;;;;5008527;28;20062;-67
2023/04/18 10:25:01;;;;;;;2.53;1.50;;;21.20;60.80;;;;;;5008936;28;20052;-67
2023/04/18 10:28:00;;;;;;;3.05;1.50;;;21.30;60.90;;;;;;5008761;28;20060;-67
2023/04/18 10:30:51;;;;;;;2.67;1.67;;;21.30;60.90;;;;;;5010279;28;20049;-67
2023/04/18 10:33:31;;;;;;;2.55;1.40;;;21.30;60.90;;;;;;5008907;28;20049;-69
2023/04/18 10:36:02;;;;;;;3.58;1.65;;;21.30;60.80;;;;;;5011072;28;20163;-69
2023/04/18 10:38:32;;;;;;;2.78;1.30;;;21.40;60.80;;;;;;5011216;28;20045;-69
2023/04/18 10:41:20;;;;;;;5.07;1.83;;;21.40;60.80;;;;;;5009858;28;20053;-69
2023/04/18 10:44:17;;;;;;;2.70;1.63;;;21.40;60.80;;;;;;5007972;28;20473;-69
2023/04/18 10:47:22;;;;;;;2.78;1.30;;;21.40;60.80;;;;;;5005092;28;20050;-69
2023/04/18 10:50:02;;;;;;;2.50;1.50;;;21.50;60.80;;;;;;5006970;28;20620;-70
2023/04/18 10:52:29;;;;;;;2.78;1.38;;;21.50;60.70;;;;;;4999787;28;20410;-69
2023/04/18 10:55:20;;;;;;;2.78;1.60;;;21.50;60.70;;;;;;4999986;28;20062;-69
2023/04/18 10:57:49;;;;;;;2.63;1.40;;;21.50;60.70;;;;;;5006717;28;20060;-69
2023/04/18 11:00:17;;;;;;;3.97;1.60;;;21.60;60.70;;;;;;5008015;28;20137;-69
2023/04/18 11:02:54;;;;;;;2.33;1.70;;;21.60;60.70;;;;;;5008661;28;20062;-68
2023/04/18 11:05:24;;;;;;;2.97;1.50;;;21.60;60.70;;;;;;5006513;28;20086;-69
2023/04/18 11:07:51;;;;;;;2.90;1.55;;;21.60;60.70;;;;;;5005771;28;20045;-69
2023/04/18 11:10:20;;;;;;;3.05;1.38;;;21.70;60.70;;;;;;5012177;28;20057;-69
2023/04/18 11:12:47;;;;;;;2.10;1.40;;;21.60;60.70;;;;;;5006839;28;20483;-68
2023/04/18 11:15:20;;;;;;;3.78;1.80;;;21.70;60.80;;;;;;5002887;28;20070;-68
2023/04/18 11:17:55;;;;;;;3.30;1.38;;;21.70;60.80;;;;;;5005167;28;20092;-69
2023/04/18 11:20:22;;;;;;;2.33;1.33;;;21.70;60.70;;;;;;5006208;28;20046;-68
2023/04/18 11:22:53;;;;;;;2.47;1.70;;;21.70;60.70;;;;;;4999124;28;20054;-68
2023/04/18 11:25:25;;;;;;;3.03;1.58;;;21.70;60.60;;;;;;5009720;28;20125;-68
2023/04/18 11:27:53;;;;;;;2.85;1.77;;;21.80;60.60;;;;;;5009387;28;20046;-68
2023/04/18 11:30:21;;;;;;;4.18;1.60;;;21.80;60.60;;;;;;4996637;28;20041;-69
2023/04/18 11:32:48;;;;;;;3.08;1.50;;;21.80;60.60;;;;;;5009553;28;20049;-68
2023/04/18 11:35:15;;;;;;;3.67;1.85;;;21.80;60.60;;;;;;5003262;28;20050;-68
2023/04/18 11:37:44;;;;;;;2.75;1.73;;;21.90;60.60;;;;;;4998074;28;20045;-69
2023/04/18 11:40:12;;;;;;;2.78;1.45;;;21.90;60.60;;;;;;5007516;28;20237;-68
2023/04/18 11:42:41;;;;;;;3.00;1.70;;;21.90;60.50;;;;;;5008875;28;20056;-69
2023/04/18 11:45:13;;;;;;;2.85;1.20;;;21.90;60.50;;;;;;5012881;28;20042;-69
2023/04/18 11:47:41;;;;;;;3.55;1.52;;;21.90;60.50;;;;;;5008368;28;20054;-69
2023/04/18 11:50:10;;;;;;;2.63;1.38;;;22.00;60.40;;;;;;5009021;28;20502;-68
2023/04/18 11:52:37;;;;;;;3.35;1.55;;;22.00;60.40;;;;;;5008668;28;20061;-69
2023/04/18 11:55:16;;;;;;;3.13;1.63;;;22.00;60.40;;;;;;5007656;28;20088;-68
2023/04/18 11:57:52;;;;;;;2.88;1.48;;;22.00;60.40;;;;;;4994963;28;20486;-69
2023/04/18 12:00:21;;;;;;;2.35;1.20;;;22.10;60.40;;;;;;5009309;28;20120;-68
2023/04/18 12:02:50;;;;;;;2.20;1.23;;;22.10;60.40;;;;;;5019805;28;20744;-69
2023/04/18 12:05:25;;;;;;;2.25;1.23;;;22.10;60.30;;;;;;5007594;28;20100;-68
2023/04/18 12:07:52;;;;;;;2.40;1.27;;;22.10;60.30;;;;;;5007434;28;20487;-68
2023/04/18 12:10:29;;;;;;;3.35;1.52;;;22.10;60.40;;;;;;5008477;28;20062;-69
2023/04/18 12:12:59;;;;;;;2.13;1.30;;;22.10;60.40;;;;;;4994059;28;20232;-68
2023/04/18 12:15:27;;;;;;;2.55;1.42;;;22.10;60.40;;;;;;5008807;28;20116;-69
2023/04/18 12:17:59;;;;;;;2.50;1.30;;;22.10;60.40;;;;;;5008172;28;20054;-68
2023/04/18 12:20:33;;;;;;;3.60;1.63;;;22.10;60.40;;;;;;5008234;28;20108;-68
2023/04/18 12:23:01;;;;;;;2.97;1.13;;;22.10;60.50;;;;;;5005902;28;20586;-68
2023/04/18 12:25:28;;;;;;;3.00;1.48;;;22.10;60.50;;;;;;5008395;28;20066;-68
2023/04/18 12:27:58;;;;;;;2.78;1.58;;;22.10;60.50;;;;;;5007941;28;20765;-68
2023/04/18 12:30:28;;;;;;;3.08;1.40;;;22.20;60.60;;;;;;5008604;28;20054;-68
2023/04/18 12:32:57;;;;;;;3.05;1.50;;;22.20;61.20;;;;;;5007712;28;20057;-68
2023/04/18 12:35:24;;;;;;;1.85;1.05;;;22.20;61.20;;;;;;5011963;28;20077;-68
2023/04/18 12:37:53;;;;;;;3.17;1.40;;;22.20;60.50;;;;;;5012223;28;20054;-68
2023/04/18 12:40:21;;;;;;;2.25;1.30;;;22.20;60.60;;;;;;5002349;28;20047;-69
2023/04/18 12:42:50;;;;;;;2.67;1.40;;;22.20;60.60;;;;;;5002815;28;20108;-68
2023/04/18 12:45:20;;;;;;;3.42;1.48;;;22.20;60.70;;;;;;5007229;28;20057;-69
2023/04/18 12:47:49;;;;;;;2.70;1.63;;;22.20;60.70;;;;;;5007269;28;20054;-69
2023/04/18 12:50:19;;;;;;;2.35;1.08;;;22.20;60.60;;;;;;5011055;28;20092;-68
2023/04/18 12:52:46;;;;;;;3.40;1.35;;;22.20;60.60;;;;;;5014583;28;20069;-69
2023/04/18 12:55:14;;;;;;;2.08;1.25;;;22.30;60.70;;;;;;5012303;28;20056;-68